createdAt,value
2018-11-05T00:00:46.072Z,98663.34
2018-11-05T00:03:14.959Z,98641.98
2018-11-05T00:05:43.098Z,98631.64
2018-11-05T00:08:11.389Z,98626.46
2018-11-05T00:10:39.680Z,98619.95
2018-11-05T00:13:07.894Z,98619.34
2018-11-05T00:15:36.198Z,98619.20
2018-11-05T00:18:04.507Z,98616.43
2018-11-05T00:20:32.830Z,98617.88
2018-11-05T00:23:01.236Z,98620.41
2018-11-05T00:25:29.420Z,98617.55
2018-11-05T00:27:57.659Z,98628.02
2018-11-05T00:30:26.672Z,98627.78
2018-11-05T00:32:54.882Z,98613.09
2018-11-05T00:35:23.019Z,98612.36
2018-11-05T00:37:51.286Z,98624.20
2018-11-05T00:40:19.419Z,98616.86
2018-11-05T00:42:47.717Z,98618.33
2018-11-05T00:45:16.135Z,98624.83
2018-11-05T00:47:44.697Z,98635.31
2018-11-05T00:50:14.356Z,98633.27
2018-11-05T00:52:42.867Z,98635.95
2018-11-05T00:55:11.851Z,98636.56
2018-11-05T00:57:40.208Z,98643.61
2018-11-05T01:00:10.471Z,98647.38
2018-11-05T01:02:39.034Z,98646.87
2018-11-05T01:05:08.117Z,98645.66
2018-11-05T01:07:36.477Z,98632.41
2018-11-05T01:10:05.036Z,98631.81
2018-11-05T01:12:33.188Z,98632.79
2018-11-05T01:15:01.579Z,98625.64
2018-11-05T01:17:29.840Z,98632.74
2018-11-05T01:19:58.929Z,98629.01
2018-11-05T01:22:27.225Z,98631.31
2018-11-05T01:24:55.358Z,98639.38
2018-11-05T01:27:24.197Z,98649.46
2018-11-05T01:29:52.461Z,98646.08
2018-11-05T01:32:21.782Z,98637.42
2018-11-05T01:34:50.130Z,98628.00
2018-11-05T01:37:18.563Z,98636.83
2018-11-05T01:39:46.681Z,98634.89
2018-11-05T01:42:14.813Z,98640.80
2018-11-05T01:44:42.964Z,98647.66
2018-11-05T01:47:11.549Z,98649.48
2018-11-05T01:49:39.780Z,98642.27
2018-11-05T01:52:08.379Z,98646.27
2018-11-05T01:54:36.553Z,98641.31
2018-11-05T01:57:05.107Z,98637.97
2018-11-05T01:59:33.338Z,98634.53
2018-11-05T02:02:01.672Z,98632.88
2018-11-05T02:04:30.043Z,98635.06
2018-11-05T02:06:58.323Z,98642.02
2018-11-05T02:09:26.467Z,98641.20
2018-11-05T02:11:54.681Z,98634.47
2018-11-05T02:14:22.906Z,98636.89
2018-11-05T02:16:51.061Z,98633.79
2018-11-05T02:19:19.246Z,98628.15
2018-11-05T02:21:47.390Z,98626.71
2018-11-05T02:24:15.562Z,98629.75
2018-11-05T02:26:43.754Z,98634.79
2018-11-05T02:29:11.901Z,98637.13
2018-11-05T02:31:40.111Z,98635.69
2018-11-05T02:34:08.271Z,98639.80
2018-11-05T02:36:36.530Z,98633.91
2018-11-05T02:39:07.314Z,98627.98
2018-11-05T02:41:35.566Z,98616.52
2018-11-05T02:44:03.714Z,98614.61
2018-11-05T02:46:31.845Z,98627.61
2018-11-05T02:49:00.062Z,98630.75
2018-11-05T02:51:28.205Z,98623.88
2018-11-05T02:53:56.347Z,98624.34
2018-11-05T02:56:24.582Z,98626.67
2018-11-05T02:58:52.715Z,98623.55
2018-11-05T03:01:20.870Z,98617.75
2018-11-05T03:03:49.035Z,98625.48
2018-11-05T03:06:17.255Z,98622.56
2018-11-05T03:08:45.426Z,98629.07
2018-11-05T03:11:13.614Z,98627.95
2018-11-05T03:13:41.773Z,98629.52
2018-11-05T03:16:09.914Z,98617.50
2018-11-05T03:18:38.074Z,98604.80
2018-11-05T03:21:06.203Z,98605.61
2018-11-05T03:23:34.366Z,98608.38
2018-11-05T03:26:02.518Z,98601.42
2018-11-05T03:28:30.662Z,98600.98
2018-11-05T03:30:58.850Z,98593.25
2018-11-05T03:33:26.986Z,98590.61
2018-11-05T03:35:55.178Z,98586.02
2018-11-05T03:38:23.316Z,98589.88
2018-11-05T03:40:51.463Z,98590.75
2018-11-05T03:43:19.625Z,98594.72
2018-11-05T03:45:47.847Z,98599.17
2018-11-05T03:48:15.986Z,98598.11
2018-11-05T03:50:44.139Z,98597.64
2018-11-05T03:53:12.360Z,98597.25
2018-11-05T03:55:40.579Z,98593.98
2018-11-05T03:58:08.660Z,98602.42
2018-11-05T04:00:36.819Z,98598.70
2018-11-05T04:03:05.132Z,98583.26
2018-11-05T04:05:33.319Z,98577.33
2018-11-05T04:08:01.489Z,98564.94
2018-11-05T04:10:29.655Z,98560.72
2018-11-05T04:12:57.810Z,98555.33
2018-11-05T04:15:26.063Z,98553.75
2018-11-05T04:17:54.144Z,98545.53
2018-11-05T04:20:22.281Z,98552.87
2018-11-05T04:22:50.446Z,98542.88
2018-11-05T04:25:18.602Z,98537.83
2018-11-05T04:27:46.913Z,98533.84
2018-11-05T04:30:15.762Z,98535.17
2018-11-05T04:32:44.145Z,98528.30
2018-11-05T04:35:12.848Z,98533.25
2018-11-05T04:37:41.026Z,98535.77
2018-11-05T04:40:10.444Z,98537.80
2018-11-05T04:42:38.597Z,98544.06
2018-11-05T04:45:08.083Z,98544.67
2018-11-05T04:47:36.276Z,98555.54
2018-11-05T04:50:05.204Z,98560.69
2018-11-05T04:52:33.435Z,98570.44
2018-11-05T04:55:01.650Z,98575.30
2018-11-05T04:57:29.886Z,98572.91
2018-11-05T04:59:58.062Z,98572.31
2018-11-05T05:02:26.247Z,98584.73
2018-11-05T05:04:54.385Z,98583.40
2018-11-05T05:07:22.585Z,98574.03
2018-11-05T05:09:50.752Z,98577.84
2018-11-05T05:12:18.901Z,98563.91
2018-11-05T05:14:47.152Z,98552.13
2018-11-05T05:17:15.304Z,98547.34
2018-11-05T05:19:43.538Z,98536.95
2018-11-05T05:22:11.712Z,98544.12
2018-11-05T05:24:39.869Z,98552.53
2018-11-05T05:27:08.018Z,98550.27
2018-11-05T05:29:36.172Z,98551.25
2018-11-05T05:32:04.502Z,98536.62
2018-11-05T05:34:34.122Z,98529.02
2018-11-05T05:37:02.343Z,98529.41
2018-11-05T05:39:30.566Z,98532.14
2018-11-05T05:41:58.721Z,98531.34
2018-11-05T05:44:26.858Z,98535.67
2018-11-05T05:46:55.089Z,98539.07
2018-11-05T05:49:23.462Z,98544.17
2018-11-05T05:51:51.605Z,98548.28
2018-11-05T05:54:19.794Z,98544.30
2018-11-05T05:56:47.946Z,98550.42
2018-11-05T05:59:16.091Z,98565.88
2018-11-05T06:01:44.250Z,98569.41
2018-11-05T06:04:12.413Z,98571.72
2018-11-05T06:06:40.664Z,98565.95
2018-11-05T06:09:09.791Z,98568.00
2018-11-05T06:11:38.246Z,98568.95
2018-11-05T06:14:06.595Z,98571.01
2018-11-05T06:16:35.426Z,98577.89
2018-11-05T06:19:03.713Z,98577.30
2018-11-05T06:21:31.851Z,98570.55
2018-11-05T06:24:00.165Z,98573.52
2018-11-05T06:26:28.296Z,98567.45
2018-11-05T06:28:56.445Z,98561.19
2018-11-05T06:31:24.637Z,98560.72
2018-11-05T06:33:52.822Z,98562.70
2018-11-05T06:36:20.992Z,98567.38
2018-11-05T06:38:49.167Z,98559.30
2018-11-05T06:41:17.427Z,98551.52
2018-11-05T06:43:45.548Z,98544.56
2018-11-05T06:46:13.729Z,98546.50
2018-11-05T06:48:41.924Z,98547.13
2018-11-05T06:51:10.010Z,98553.92
2018-11-05T06:53:38.150Z,98558.08
2018-11-05T06:56:06.471Z,98564.03
2018-11-05T06:58:34.683Z,98560.19
2018-11-05T07:01:03.750Z,98574.78
2018-11-05T07:03:31.971Z,98583.46
2018-11-05T07:06:00.156Z,98584.91
2018-11-05T07:08:28.274Z,98593.00
2018-11-05T07:10:56.467Z,98588.64
2018-11-05T07:13:24.643Z,98590.44
2018-11-05T07:15:53.626Z,98590.81
2018-11-05T07:18:21.838Z,98587.95
2018-11-05T07:20:49.907Z,98591.70
2018-11-05T07:23:18.063Z,98584.70
2018-11-05T07:25:46.194Z,98583.64
2018-11-05T07:28:14.367Z,98586.16
2018-11-05T07:30:42.959Z,98581.00
2018-11-05T07:33:11.148Z,98582.66
2018-11-05T07:35:39.234Z,98584.72
2018-11-05T07:38:07.413Z,98579.15
2018-11-05T07:40:35.548Z,98580.52
2018-11-05T07:43:03.794Z,98580.27
2018-11-05T07:45:31.949Z,98583.67
2018-11-05T07:48:00.095Z,98578.47
2018-11-05T07:50:28.319Z,98578.95
2018-11-05T07:52:56.402Z,98579.34
2018-11-05T07:55:24.609Z,98575.00
2018-11-05T07:57:52.983Z,98573.45
2018-11-05T08:00:55.066Z,98574.43
2018-11-05T08:03:23.885Z,98564.62
2018-11-05T08:05:52.054Z,98562.23
2018-11-05T08:08:20.281Z,98552.70
2018-11-05T08:10:48.398Z,98555.23
2018-11-05T08:13:16.576Z,98553.78
2018-11-05T08:15:44.708Z,98555.48
2018-11-05T08:18:12.845Z,98549.95
2018-11-05T08:20:40.990Z,98550.77
2018-11-05T08:23:09.194Z,98545.13
2018-11-05T08:25:37.333Z,98543.78
2018-11-05T08:28:05.713Z,98551.75
2018-11-05T08:30:33.966Z,98549.66
2018-11-05T08:33:02.111Z,98544.87
2018-11-05T08:35:30.261Z,98555.98
2018-11-05T08:37:58.413Z,98554.27
2018-11-05T08:40:27.342Z,98565.36
2018-11-05T08:42:56.051Z,98561.03
2018-11-05T08:45:25.458Z,98552.95
2018-11-05T08:47:53.579Z,98550.17
2018-11-05T08:50:22.745Z,98541.23
2018-11-05T08:52:50.776Z,98539.82
2018-11-05T08:55:20.397Z,98536.91
2018-11-05T08:57:48.653Z,98534.24
2018-11-05T09:00:22.895Z,98532.32
2018-11-05T09:02:51.369Z,98521.45
2018-11-05T09:05:19.686Z,98524.72
2018-11-05T09:07:49.370Z,98522.06
2018-11-05T09:10:17.735Z,98530.53
2018-11-05T09:12:45.678Z,98528.48
2018-11-05T09:15:15.212Z,98532.08
2018-11-05T09:17:44.084Z,98529.30
2018-11-05T09:20:13.495Z,98543.78
2018-11-05T09:22:41.874Z,98547.17
2018-11-05T09:25:11.067Z,98558.26
2018-11-05T09:27:39.264Z,98550.77
2018-11-05T09:30:09.882Z,98558.59
2018-11-05T09:32:38.029Z,98560.19
2018-11-05T09:35:06.688Z,98547.89
2018-11-05T09:37:34.922Z,98551.16
2018-11-05T09:40:03.105Z,98542.95
2018-11-05T09:42:31.424Z,98544.78
2018-11-05T09:44:59.542Z,98556.59
2018-11-05T09:47:27.704Z,98550.56
2018-11-05T09:49:55.862Z,98557.66
2018-11-05T09:52:24.042Z,98561.77
2018-11-05T09:54:52.203Z,98572.98
2018-11-05T09:57:20.474Z,98555.86
2018-11-05T09:59:48.527Z,98559.97
2018-11-05T10:02:16.675Z,98559.59
2018-11-05T10:04:45.234Z,98560.80
2018-11-05T10:07:13.133Z,98570.78
2018-11-05T10:09:41.319Z,98564.41
2018-11-05T10:12:09.446Z,98569.72
2018-11-05T10:14:38.310Z,98563.44
2018-11-05T10:17:07.059Z,98564.28
2018-11-05T10:19:35.191Z,98570.20
2018-11-05T10:22:03.363Z,98568.27
2018-11-05T10:24:31.587Z,98570.31
2018-11-05T10:26:59.722Z,98567.20
2018-11-05T10:29:27.902Z,98565.75
2018-11-05T10:31:56.043Z,98566.48
2018-11-05T10:34:24.198Z,98561.77
2018-11-05T10:36:52.383Z,98567.65
2018-11-05T10:39:20.537Z,98573.19
2018-11-05T10:41:48.670Z,98571.51
2018-11-05T10:44:16.906Z,98570.51
2018-11-05T10:46:44.995Z,98557.85
2018-11-05T10:49:13.131Z,98556.56
2018-11-05T10:51:41.425Z,98553.30
2018-11-05T10:54:09.498Z,98549.27
2018-11-05T10:56:37.678Z,98553.73
2018-11-05T10:59:05.918Z,98550.80
2018-11-05T11:01:39.373Z,98562.56
2018-11-05T11:04:12.935Z,98552.11
2018-11-05T11:06:41.086Z,98556.64
2018-11-05T11:09:09.402Z,98552.36
2018-11-05T11:11:37.558Z,98554.38
2018-11-05T11:14:05.701Z,98543.37
2018-11-05T11:16:33.842Z,98541.49
2018-11-05T11:19:02.053Z,98539.00
2018-11-05T11:21:30.278Z,98538.05
2018-11-05T11:23:58.479Z,98532.83
2018-11-05T11:26:26.641Z,98516.63
2018-11-05T11:28:54.859Z,98525.98
2018-11-05T11:31:22.966Z,98525.98
2018-11-05T11:33:51.157Z,98526.91
2018-11-05T11:36:19.522Z,98527.66
2018-11-05T11:38:47.680Z,98520.22
2018-11-05T11:41:15.891Z,98512.98
2018-11-05T11:43:44.042Z,98497.69
2018-11-05T11:46:12.194Z,98507.70
2018-11-05T11:48:40.357Z,98506.62
2018-11-05T11:51:08.513Z,98499.63
2018-11-05T11:53:36.731Z,98503.44
2018-11-05T11:56:04.896Z,98498.36
2018-11-05T11:58:33.041Z,98489.16
2018-11-05T12:01:01.224Z,98485.00
2018-11-05T12:03:29.414Z,98472.12
2018-11-05T12:05:57.555Z,98460.84
2018-11-05T12:08:25.727Z,98462.98
2018-11-05T12:10:53.934Z,98464.98
2018-11-05T12:13:22.086Z,98470.27
2018-11-05T12:15:50.234Z,98462.14
2018-11-05T12:18:18.390Z,98454.05
2018-11-05T12:20:46.563Z,98468.76
2018-11-05T12:23:14.809Z,98464.70
2018-11-05T12:25:42.966Z,98469.81
2018-11-05T12:28:11.110Z,98463.55
2018-11-05T12:30:39.258Z,98456.61
2018-11-05T12:33:07.516Z,98453.75
2018-11-05T12:35:35.826Z,98458.88
2018-11-05T12:38:04.023Z,98456.36
2018-11-05T12:40:32.183Z,98456.61
2018-11-05T12:43:00.351Z,98450.03
2018-11-05T12:45:28.503Z,98450.59
2018-11-05T12:47:56.676Z,98449.66
2018-11-05T12:50:24.954Z,98453.47
2018-11-05T12:52:55.029Z,98448.49
2018-11-05T12:55:23.347Z,98445.27
2018-11-05T12:57:51.494Z,98448.70
2018-11-05T13:00:21.309Z,98453.15
2018-11-05T13:02:54.597Z,98453.24
2018-11-05T13:05:23.398Z,98454.09
2018-11-05T13:07:51.713Z,98456.57
2018-11-05T13:10:19.958Z,98456.47
2018-11-05T13:12:48.254Z,98450.34
2018-11-05T13:15:16.515Z,98441.43
2018-11-05T13:17:44.658Z,98437.79
2018-11-05T13:20:17.795Z,98441.38
2018-11-05T13:22:46.180Z,98435.14
2018-11-05T13:25:14.399Z,98430.64
2018-11-05T13:27:44.705Z,98427.20
2018-11-05T13:30:13.501Z,98435.09
2018-11-05T13:32:42.254Z,98428.91
2018-11-05T13:35:12.051Z,98430.87
2018-11-05T13:37:40.870Z,98425.81
2018-11-05T13:40:12.260Z,98418.94
2018-11-05T13:42:40.416Z,98418.73
2018-11-05T13:45:09.937Z,98423.84
2018-11-05T13:47:38.902Z,98416.59
2018-11-05T13:50:06.876Z,98418.44
2018-11-05T13:52:35.102Z,98416.84
2018-11-05T13:55:03.370Z,98417.84
2018-11-05T13:57:31.439Z,98417.95
2018-11-05T13:59:59.532Z,98409.44
2018-11-05T14:02:27.714Z,98405.46
2018-11-05T14:04:55.850Z,98406.44
2018-11-05T14:07:24.000Z,98410.44
2018-11-05T14:09:52.183Z,98402.11
2018-11-05T14:12:20.335Z,98398.37
2018-11-05T14:14:48.492Z,98404.70
2018-11-05T14:17:16.660Z,98395.06
2018-11-05T14:19:44.823Z,98398.45
2018-11-05T14:22:13.042Z,98399.53
2018-11-05T14:24:41.155Z,98397.91
2018-11-05T14:27:09.306Z,98401.80
2018-11-05T14:29:38.311Z,98406.02
2018-11-05T14:32:06.421Z,98405.03
2018-11-05T14:34:34.495Z,98400.40
2018-11-05T14:37:02.708Z,98398.18
2018-11-05T14:39:30.860Z,98400.03
2018-11-05T14:41:59.095Z,98402.83
2018-11-05T14:44:27.235Z,98408.30
2018-11-05T14:46:55.393Z,98409.82
2018-11-05T14:49:23.561Z,98406.04
2018-11-05T14:51:51.752Z,98407.84
2018-11-05T14:54:19.898Z,98398.78
2018-11-05T14:56:48.887Z,98398.72
2018-11-05T14:59:17.054Z,98400.50
2018-11-05T15:01:45.656Z,98403.21
2018-11-05T15:04:14.501Z,98410.58
2018-11-05T15:06:43.337Z,98414.91
2018-11-05T15:09:13.046Z,98412.64
2018-11-05T15:11:41.239Z,98417.46
2018-11-05T15:14:09.478Z,98416.89
2018-11-05T15:16:37.634Z,98413.28
2018-11-05T15:19:06.476Z,98412.66
2018-11-05T15:21:34.354Z,98413.20
2018-11-05T15:24:02.522Z,98411.20
2018-11-05T15:26:30.690Z,98417.96
2018-11-05T15:28:58.817Z,98411.64
2018-11-05T15:31:27.917Z,98412.92
2018-11-05T15:33:56.223Z,98411.41
2018-11-05T15:36:24.251Z,98405.17
2018-11-05T15:38:52.420Z,98402.80
2018-11-05T15:41:20.582Z,98405.84
2018-11-05T15:43:48.818Z,98408.05
2018-11-05T15:46:16.978Z,98409.76
2018-11-05T15:48:45.119Z,98406.91
2018-11-05T15:51:13.436Z,98405.09
2018-11-05T15:53:41.613Z,98402.61
2018-11-05T15:56:09.566Z,98402.41
2018-11-05T15:58:37.846Z,98393.34
2018-11-05T16:01:06.608Z,98394.16
2018-11-05T16:03:34.755Z,98398.92
2018-11-05T16:06:03.474Z,98403.69
2018-11-05T16:08:31.693Z,98405.98
2018-11-05T16:10:59.864Z,98395.91
2018-11-05T16:13:28.918Z,98391.67
2018-11-05T16:15:57.082Z,98394.73
2018-11-05T16:18:25.219Z,98392.70
2018-11-05T16:20:53.448Z,98391.78
2018-11-05T16:23:21.645Z,98394.29
2018-11-05T16:25:49.846Z,98399.47
2018-11-05T16:28:17.975Z,98405.02
2018-11-05T16:30:46.233Z,98407.92
2018-11-05T16:33:14.282Z,98412.88
2018-11-05T16:35:43.106Z,98420.11
2018-11-05T16:38:11.151Z,98423.94
2018-11-05T16:40:39.313Z,98423.19
2018-11-05T16:43:07.503Z,98419.61
2018-11-05T16:45:35.694Z,98425.53
2018-11-05T16:48:03.823Z,98433.13
2018-11-05T16:50:32.078Z,98432.41
2018-11-05T16:53:00.231Z,98425.72
2018-11-05T16:55:28.518Z,98430.00
2018-11-05T16:57:56.738Z,98439.63
2018-11-05T17:00:24.815Z,98437.05
2018-11-05T17:02:53.590Z,98434.19
2018-11-05T17:05:21.726Z,98432.59
2018-11-05T17:07:49.854Z,98428.42
2018-11-05T17:10:18.039Z,98427.30
2018-11-05T17:12:46.302Z,98424.06
2018-11-05T17:15:15.607Z,98430.53
2018-11-05T17:17:44.113Z,98425.27
2018-11-05T17:20:14.340Z,98414.64
2018-11-05T17:22:42.897Z,98416.09
2018-11-05T17:25:12.299Z,98417.75
2018-11-05T17:27:40.781Z,98420.53
2018-11-05T17:30:11.821Z,98425.31
2018-11-05T17:32:40.262Z,98425.47
2018-11-05T17:35:08.469Z,98422.55
2018-11-05T17:37:36.624Z,98434.56
2018-11-05T17:40:06.283Z,98423.58
2018-11-05T17:42:34.434Z,98425.28
2018-11-05T17:45:02.620Z,98417.33
2018-11-05T17:47:30.914Z,98414.23
2018-11-05T17:49:59.097Z,98405.95
2018-11-05T17:52:27.231Z,98409.92
2018-11-05T17:54:55.438Z,98413.58
2018-11-05T17:57:23.589Z,98419.09
2018-11-05T17:59:51.736Z,98420.34
2018-11-05T18:02:24.965Z,98432.24
2018-11-05T18:04:54.845Z,98434.36
2018-11-05T18:07:23.525Z,98433.81
2018-11-05T18:09:52.423Z,98427.56
2018-11-05T18:12:20.566Z,98431.91
2018-11-05T18:14:48.714Z,98441.62
2018-11-05T18:17:16.847Z,98436.98
2018-11-05T18:19:45.006Z,98430.91
2018-11-05T18:22:13.297Z,98429.59
2018-11-05T18:24:41.772Z,98433.91
2018-11-05T18:27:09.965Z,98432.44
2018-11-05T18:29:38.393Z,98431.45
2018-11-05T18:32:06.725Z,98421.65
2018-11-05T18:34:34.975Z,98424.06
2018-11-05T18:37:03.127Z,98430.87
2018-11-05T18:39:31.268Z,98433.36
2018-11-05T18:41:59.447Z,98428.72
2018-11-05T18:44:27.609Z,98432.88
2018-11-05T18:46:55.754Z,98437.13
2018-11-05T18:49:24.926Z,98437.98
2018-11-05T18:51:53.249Z,98445.05
2018-11-05T18:54:21.485Z,98449.17
2018-11-05T18:56:49.709Z,98435.96
2018-11-05T18:59:17.940Z,98445.72
2018-11-05T19:01:46.102Z,98445.41
2018-11-05T19:04:14.388Z,98443.33
2018-11-05T19:06:44.297Z,98446.77
2018-11-05T19:09:12.556Z,98445.22
2018-11-05T19:11:41.258Z,98433.65
2018-11-05T19:14:09.485Z,98436.86
2018-11-05T19:16:37.701Z,98436.70
2018-11-05T19:19:08.975Z,98442.92
2018-11-05T19:21:37.110Z,98444.72
2018-11-05T19:24:05.541Z,98449.42
2018-11-05T19:26:33.575Z,98455.17
2018-11-05T19:29:01.854Z,98457.59
2018-11-05T19:31:30.012Z,98447.52
2018-11-05T19:33:58.278Z,98449.67
2018-11-05T19:36:26.321Z,98452.51
2018-11-05T19:38:54.478Z,98451.36
2018-11-05T19:41:22.711Z,98446.84
2018-11-05T19:43:50.808Z,98452.77
2018-11-05T19:46:18.939Z,98456.25
2018-11-05T19:48:49.203Z,98452.08
2018-11-05T19:51:17.462Z,98456.96
2018-11-05T19:53:45.663Z,98465.26
2018-11-05T19:56:14.041Z,98475.80
2018-11-05T19:58:41.945Z,98465.96
2018-11-05T20:01:10.665Z,98465.26
2018-11-05T20:03:38.876Z,98455.95
2018-11-05T20:06:07.096Z,98455.34
2018-11-05T20:08:35.218Z,98459.86
2018-11-05T20:11:03.370Z,98471.09
2018-11-05T20:13:31.505Z,98478.77
2018-11-05T20:15:59.718Z,98476.03
2018-11-05T20:18:27.968Z,98476.19
2018-11-05T20:20:56.028Z,98481.22
2018-11-05T20:23:24.741Z,98474.98
2018-11-05T20:25:52.899Z,98469.27
2018-11-05T20:28:21.102Z,98461.67
2018-11-05T20:30:49.205Z,98464.20
2018-11-05T20:33:17.559Z,98468.31
2018-11-05T20:35:45.607Z,98476.13
2018-11-05T20:38:14.303Z,98483.97
2018-11-05T20:40:42.486Z,98482.18
2018-11-05T20:43:10.585Z,98482.59
2018-11-05T20:45:38.799Z,98489.93
2018-11-05T20:48:06.982Z,98496.00
2018-11-05T20:50:35.173Z,98494.34
2018-11-05T20:53:03.346Z,98490.38
2018-11-05T20:55:31.510Z,98484.53
2018-11-05T20:57:59.681Z,98490.88
2018-11-05T21:00:27.905Z,98494.73
2018-11-05T21:02:56.052Z,98495.52
2018-11-05T21:05:24.201Z,98505.52
2018-11-05T21:07:52.611Z,98494.92
2018-11-05T21:10:20.859Z,98493.70
2018-11-05T21:12:49.007Z,98497.05
2018-11-05T21:15:18.447Z,98495.16
2018-11-05T21:17:47.534Z,98483.15
2018-11-05T21:20:15.901Z,98481.00
2018-11-05T21:22:44.556Z,98480.15
2018-11-05T21:25:12.663Z,98490.98
2018-11-05T21:27:41.535Z,98493.80
2018-11-05T21:30:11.590Z,98490.15
2018-11-05T21:32:39.866Z,98491.53
2018-11-05T21:35:10.019Z,98496.02
2018-11-05T21:37:39.153Z,98502.55
2018-11-05T21:40:08.241Z,98493.38
2018-11-05T21:42:36.833Z,98501.30
2018-11-05T21:45:07.046Z,98504.44
2018-11-05T21:47:35.341Z,98496.41
2018-11-05T21:50:04.159Z,98496.75
2018-11-05T21:52:32.296Z,98492.89
2018-11-05T21:55:00.439Z,98488.45
2018-11-05T21:57:28.579Z,98496.19
2018-11-05T21:59:56.754Z,98493.09
2018-11-05T22:02:24.915Z,98502.25
2018-11-05T22:04:53.071Z,98503.50
2018-11-05T22:07:21.281Z,98497.22
2018-11-05T22:09:49.949Z,98496.93
2018-11-05T22:12:18.131Z,98494.50
2018-11-05T22:14:46.359Z,98486.33
2018-11-05T22:17:14.521Z,98484.80
2018-11-05T22:19:42.702Z,98484.81
2018-11-05T22:22:10.901Z,98484.44
2018-11-05T22:24:39.078Z,98480.80
2018-11-05T22:27:08.149Z,98492.72
2018-11-05T22:29:36.302Z,98491.78
2018-11-05T22:32:04.718Z,98493.87
2018-11-05T22:34:33.075Z,98497.89
2018-11-05T22:37:01.225Z,98501.92
2018-11-05T22:39:29.376Z,98496.41
2018-11-05T22:41:57.553Z,98498.06
2018-11-05T22:44:25.692Z,98500.86
2018-11-05T22:46:53.847Z,98501.33
2018-11-05T22:49:22.068Z,98504.06
2018-11-05T22:51:50.275Z,98501.48
2018-11-05T22:54:18.434Z,98498.02
2018-11-05T22:56:47.355Z,98503.96
2018-11-05T22:59:15.567Z,98499.69
2018-11-05T23:01:49.083Z,98500.53
2018-11-05T23:04:17.317Z,98495.83
2018-11-05T23:06:45.469Z,98491.13
2018-11-05T23:09:13.634Z,98492.16
2018-11-05T23:11:42.319Z,98485.86
2018-11-05T23:14:10.487Z,98476.34
2018-11-05T23:16:39.119Z,98473.16
2018-11-05T23:19:09.033Z,98473.73
2018-11-05T23:21:37.502Z,98481.64
2018-11-05T23:24:05.882Z,98469.78
2018-11-05T23:26:34.028Z,98469.05
2018-11-05T23:29:02.178Z,98456.88
2018-11-05T23:31:30.441Z,98461.30
2018-11-05T23:33:58.606Z,98472.80
2018-11-05T23:36:27.042Z,98475.13
2018-11-05T23:38:55.379Z,98477.69
2018-11-05T23:41:25.060Z,98475.24
2018-11-05T23:43:54.898Z,98474.86
2018-11-05T23:46:24.213Z,98469.22
2018-11-05T23:48:52.342Z,98467.25
2018-11-05T23:51:20.489Z,98473.38
2018-11-05T23:53:48.645Z,98468.36
2018-11-05T23:56:16.781Z,98468.66
2018-11-05T23:58:44.932Z,98470.16
